sensor_id;sensor_type;location;lat;lon;timestamp;pressure;altitude;pressure_sealevel;temperature;humidity
56074;BME280;41950;55.840;37.442;2024-03-07T00:00:28;100537.19;;;-6.31;58.61
56074;BME280;41950;55.840;37.442;2024-03-07T00:02:54;100565.25;;;-6.13;58.77
56074;BME280;41950;55.840;37.442;2024-03-07T00:05:21;100560.63;;;-6.20;58.79
56074;BME280;41950;55.840;37.442;2024-03-07T00:07:50;100539.50;;;-6.34;58.92
56074;BME280;41950;55.840;37.442;2024-03-07T00:10:16;100512.94;;;-6.56;59.07
56074;BME280;41950;55.840;37.442;2024-03-07T00:12:44;100557.19;;;-6.34;59.50
56074;BME280;41950;55.840;37.442;2024-03-07T00:15:12;100503.97;;;-6.64;59.43
56074;BME280;41950;55.840;37.442;2024-03-07T00:17:39;100526.53;;;-6.53;59.40
56074;BME280;41950;55.840;37.442;2024-03-07T00:20:05;100532.91;;;-6.59;59.66
56074;BME280;41950;55.840;37.442;2024-03-07T00:22:37;100552.72;;;-6.38;59.57
56074;BME280;41950;55.840;37.442;2024-03-07T00:25:03;100557.78;;;-6.38;59.43
56074;BME280;41950;55.840;37.442;2024-03-07T00:27:32;100554.00;;;-6.45;59.41
56074;BME280;41950;55.840;37.442;2024-03-07T00:29:59;100543.59;;;-6.63;59.85
56074;BME280;41950;55.840;37.442;2024-03-07T00:32:25;100537.06;;;-6.59;59.83
56074;BME280;41950;55.840;37.442;2024-03-07T00:34:55;100547.66;;;-6.65;60.13
56074;BME280;41950;55.840;37.442;2024-03-07T00:37:22;100545.72;;;-6.69;60.33
56074;BME280;41950;55.840;37.442;2024-03-07T00:39:50;100538.06;;;-6.70;60.46
56074;BME280;41950;55.840;37.442;2024-03-07T00:42:15;100544.00;;;-6.57;60.10
56074;BME280;41950;55.840;37.442;2024-03-07T00:44:42;100526.31;;;-6.70;59.88
56074;BME280;41950;55.840;37.442;2024-03-07T00:47:08;100499.91;;;-6.75;59.91
56074;BME280;41950;55.840;37.442;2024-03-07T00:49:34;100520.97;;;-6.61;59.96
56074;BME280;41950;55.840;37.442;2024-03-07T00:52:00;100499.13;;;-6.74;59.99
56074;BME280;41950;55.840;37.442;2024-03-07T00:54:26;100496.78;;;-6.71;59.93
56074;BME280;41950;55.840;37.442;2024-03-07T00:56:51;100525.13;;;-6.62;60.17
56074;BME280;41950;55.840;37.442;2024-03-07T00:59:17;100534.34;;;-6.62;60.31
56074;BME280;41950;55.840;37.442;2024-03-07T01:01:43;100524.16;;;-6.64;59.99
56074;BME280;41950;55.840;37.442;2024-03-07T01:04:09;100528.63;;;-6.60;59.98
56074;BME280;41950;55.840;37.442;2024-03-07T01:06:35;100520.28;;;-6.59;60.02
56074;BME280;41950;55.840;37.442;2024-03-07T01:09:04;100520.88;;;-6.63;60.28
56074;BME280;41950;55.840;37.442;2024-03-07T01:11:30;100523.28;;;-6.64;60.33
56074;BME280;41950;55.840;37.442;2024-03-07T01:13:56;100532.31;;;-6.68;60.44
56074;BME280;41950;55.840;37.442;2024-03-07T01:16:22;100533.38;;;-6.64;60.53
56074;BME280;41950;55.840;37.442;2024-03-07T01:18:48;100489.00;;;-6.87;60.70
56074;BME280;41950;55.840;37.442;2024-03-07T01:21:15;100515.13;;;-6.73;60.32
56074;BME280;41950;55.840;37.442;2024-03-07T01:23:41;100512.81;;;-6.70;60.43
56074;BME280;41950;55.840;37.442;2024-03-07T01:26:07;100526.09;;;-6.73;60.40
56074;BME280;41950;55.840;37.442;2024-03-07T01:28:33;100498.88;;;-6.90;60.86
56074;BME280;41950;55.840;37.442;2024-03-07T01:30:59;100500.44;;;-6.92;60.92
56074;BME280;41950;55.840;37.442;2024-03-07T01:33:25;100469.63;;;-7.13;61.00
56074;BME280;41950;55.840;37.442;2024-03-07T01:35:51;100518.72;;;-6.83;60.85
56074;BME280;41950;55.840;37.442;2024-03-07T01:38:17;100479.97;;;-7.10;61.28
56074;BME280;41950;55.840;37.442;2024-03-07T01:40:44;100512.09;;;-6.94;61.57
56074;BME280;41950;55.840;37.442;2024-03-07T01:43:10;100514.22;;;-7.00;61.69
56074;BME280;41950;55.840;37.442;2024-03-07T01:45:37;100416.03;;;-7.49;61.90
56074;BME280;41950;55.840;37.442;2024-03-07T01:48:09;100491.13;;;-7.06;61.89
56074;BME280;41950;55.840;37.442;2024-03-07T01:50:36;100489.53;;;-7.18;62.01
56074;BME280;41950;55.840;37.442;2024-03-07T01:53:09;100490.28;;;-7.32;62.38
56074;BME280;41950;55.840;37.442;2024-03-07T01:55:37;100460.53;;;-7.49;62.38
56074;BME280;41950;55.840;37.442;2024-03-07T01:58:04;100505.22;;;-7.22;62.51
56074;BME280;41950;55.840;37.442;2024-03-07T02:00:31;100455.09;;;-7.55;62.47
56074;BME280;41950;55.840;37.442;2024-03-07T02:02:57;100481.66;;;-7.35;62.26
56074;BME280;41950;55.840;37.442;2024-03-07T02:05:23;100514.56;;;-7.21;62.17
56074;BME280;41950;55.840;37.442;2024-03-07T02:07:50;100500.75;;;-7.26;61.78
56074;BME280;41950;55.840;37.442;2024-03-07T02:10:16;100498.81;;;-7.30;61.66
56074;BME280;41950;55.840;37.442;2024-03-07T02:12:44;100484.38;;;-7.32;61.23
56074;BME280;41950;55.840;37.442;2024-03-07T02:15:10;100476.59;;;-7.35;61.24
56074;BME280;41950;55.840;37.442;2024-03-07T02:17:37;100488.94;;;-7.27;61.04
56074;BME280;41950;55.840;37.442;2024-03-07T02:20:04;100465.53;;;-7.37;61.15
56074;BME280;41950;55.840;37.442;2024-03-07T02:22:33;100463.78;;;-7.38;61.18
56074;BME280;41950;55.840;37.442;2024-03-07T02:24:58;100493.09;;;-7.27;61.16
56074;BME280;41950;55.840;37.442;2024-03-07T02:27:24;100494.28;;;-7.22;60.94
56074;BME280;41950;55.840;37.442;2024-03-07T02:29:50;100459.53;;;-7.39;61.05
56074;BME280;41950;55.840;37.442;2024-03-07T02:32:16;100459.38;;;-7.41;60.87
56074;BME280;41950;55.840;37.442;2024-03-07T02:34:43;100452.50;;;-7.43;60.49
56074;BME280;41950;55.840;37.442;2024-03-07T02:37:09;100490.47;;;-7.29;60.78
56074;BME280;41950;55.840;37.442;2024-03-07T02:39:36;100469.72;;;-7.38;60.55
56074;BME280;41950;55.840;37.442;2024-03-07T02:42:02;100472.22;;;-7.38;60.47
56074;BME280;41950;55.840;37.442;2024-03-07T02:44:28;100431.63;;;-7.54;59.41
56074;BME280;41950;55.840;37.442;2024-03-07T02:46:53;100482.25;;;-7.26;59.28
56074;BME280;41950;55.840;37.442;2024-03-07T02:49:20;100477.69;;;-7.19;59.17
56074;BME280;41950;55.840;37.442;2024-03-07T02:51:47;100478.47;;;-7.20;59.17
56074;BME280;41950;55.840;37.442;2024-03-07T02:54:12;100484.19;;;-7.22;59.33
56074;BME280;41950;55.840;37.442;2024-03-07T02:56:38;100421.94;;;-7.61;59.39
56074;BME280;41950;55.840;37.442;2024-03-07T02:59:04;100481.56;;;-7.24;59.01
56074;BME280;41950;55.840;37.442;2024-03-07T03:01:29;100482.44;;;-7.23;58.99
56074;BME280;41950;55.840;37.442;2024-03-07T03:03:55;100484.19;;;-7.22;58.82
56074;BME280;41950;55.840;37.442;2024-03-07T03:06:20;100469.81;;;-7.23;58.59
56074;BME280;41950;55.840;37.442;2024-03-07T03:08:47;100458.47;;;-7.30;58.31
56074;BME280;41950;55.840;37.442;2024-03-07T03:11:13;100471.78;;;-7.19;58.34
56074;BME280;41950;55.840;37.442;2024-03-07T03:13:42;100456.53;;;-7.34;58.38
56074;BME280;41950;55.840;37.442;2024-03-07T03:16:08;100473.78;;;-7.27;58.45
56074;BME280;41950;55.840;37.442;2024-03-07T03:18:35;100470.88;;;-7.33;58.73
56074;BME280;41950;55.840;37.442;2024-03-07T03:21:01;100448.00;;;-7.36;58.59
56074;BME280;41950;55.840;37.442;2024-03-07T03:23:27;100465.16;;;-7.30;58.75
56074;BME280;41950;55.840;37.442;2024-03-07T03:25:54;100472.63;;;-7.32;58.85
56074;BME280;41950;55.840;37.442;2024-03-07T03:28:21;100438.44;;;-7.53;59.03
56074;BME280;41950;55.840;37.442;2024-03-07T03:30:47;100455.91;;;-7.43;59.16
56074;BME280;41950;55.840;37.442;2024-03-07T03:33:13;100441.91;;;-7.51;59.36
56074;BME280;41950;55.840;37.442;2024-03-07T03:35:39;100457.44;;;-7.45;59.22
56074;BME280;41950;55.840;37.442;2024-03-07T03:38:08;100392.59;;;-7.72;58.96
56074;BME280;41950;55.840;37.442;2024-03-07T03:40:35;100447.56;;;-7.42;58.64
56074;BME280;41950;55.840;37.442;2024-03-07T03:43:01;100456.44;;;-7.35;59.08
56074;BME280;41950;55.840;37.442;2024-03-07T03:45:26;100465.16;;;-7.30;58.83
56074;BME280;41950;55.840;37.442;2024-03-07T03:47:53;100476.31;;;-7.27;58.41
56074;BME280;41950;55.840;37.442;2024-03-07T03:50:19;100448.19;;;-7.33;58.29
56074;BME280;41950;55.840;37.442;2024-03-07T03:52:44;100425.34;;;-7.48;58.18
56074;BME280;41950;55.840;37.442;2024-03-07T03:55:11;100433.22;;;-7.43;58.20
56074;BME280;41950;55.840;37.442;2024-03-07T03:57:42;100434.94;;;-7.42;57.97
56074;BME280;41950;55.840;37.442;2024-03-07T04:00:09;100465.84;;;-7.33;58.12
56074;BME280;41950;55.840;37.442;2024-03-07T04:02:40;100464.09;;;-7.34;57.93
56074;BME280;41950;55.840;37.442;2024-03-07T04:05:07;100402.88;;;-7.69;57.91
56074;BME280;41950;55.840;37.442;2024-03-07T04:07:35;100459.03;;;-7.34;57.56
56074;BME280;41950;55.840;37.442;2024-03-07T04:10:01;100343.78;;;-7.99;57.71
56074;BME280;41950;55.840;37.442;2024-03-07T04:12:29;100444.25;;;-7.41;57.60
56074;BME280;41950;55.840;37.442;2024-03-07T04:14:55;100453.56;;;-7.40;57.40
56074;BME280;41950;55.840;37.442;2024-03-07T04:17:21;100449.31;;;-7.41;57.50
56074;BME280;41950;55.840;37.442;2024-03-07T04:19:47;100450.31;;;-7.39;57.22
56074;BME280;41950;55.840;37.442;2024-03-07T04:22:13;100399.06;;;-7.64;57.30
56074;BME280;41950;55.840;37.442;2024-03-07T04:24:39;100383.31;;;-7.73;57.25
56074;BME280;41950;55.840;37.442;2024-03-07T04:27:05;100428.16;;;-7.43;56.98
56074;BME280;41950;55.840;37.442;2024-03-07T04:29:32;100450.59;;;-7.34;56.69
56074;BME280;41950;55.840;37.442;2024-03-07T04:31:59;100428.75;;;-7.47;56.67
56074;BME280;41950;55.840;37.442;2024-03-07T04:34:25;100450.50;;;-7.36;56.49
56074;BME280;41950;55.840;37.442;2024-03-07T04:36:51;100447.88;;;-7.37;56.46
56074;BME280;41950;55.840;37.442;2024-03-07T04:39:16;100447.00;;;-7.38;56.60
56074;BME280;41950;55.840;37.442;2024-03-07T04:42:08;100443.50;;;-7.40;56.43
56074;BME280;41950;55.840;37.442;2024-03-07T04:44:35;100450.97;;;-7.41;56.42
56074;BME280;41950;55.840;37.442;2024-03-07T04:47:03;100431.94;;;-7.50;56.49
56074;BME280;41950;55.840;37.442;2024-03-07T04:49:30;100415.53;;;-7.56;56.66
56074;BME280;41950;55.840;37.442;2024-03-07T04:51:57;100438.88;;;-7.34;56.51
56074;BME280;41950;55.840;37.442;2024-03-07T04:54:25;100436.56;;;-7.31;56.41
56074;BME280;41950;55.840;37.442;2024-03-07T04:56:51;100381.31;;;-7.66;56.27
56074;BME280;41950;55.840;37.442;2024-03-07T04:59:18;100415.56;;;-7.43;56.18
56074;BME280;41950;55.840;37.442;2024-03-07T05:01:44;100419.38;;;-7.36;56.17
56074;BME280;41950;55.840;37.442;2024-03-07T05:04:14;100420.44;;;-7.33;56.06
56074;BME280;41950;55.840;37.442;2024-03-07T05:06:40;100439.84;;;-7.19;55.77
56074;BME280;41950;55.840;37.442;2024-03-07T05:09:08;100423.75;;;-7.21;55.82
56074;BME280;41950;55.840;37.442;2024-03-07T05:11:35;100408.41;;;-7.24;55.89
56074;BME280;41950;55.840;37.442;2024-03-07T05:14:01;100421.34;;;-7.06;55.69
56074;BME280;41950;55.840;37.442;2024-03-07T05:16:27;100387.56;;;-7.21;55.52
56074;BME280;41950;55.840;37.442;2024-03-07T05:18:53;100420.88;;;-7.00;55.46
56074;BME280;41950;55.840;37.442;2024-03-07T05:21:19;100412.13;;;-7.05;55.22
56074;BME280;41950;55.840;37.442;2024-03-07T05:24:07;100421.06;;;-6.97;55.28
56074;BME280;41950;55.840;37.442;2024-03-07T05:26:34;100436.31;;;-6.82;55.23
56074;BME280;41950;55.840;37.442;2024-03-07T05:29:03;100434.28;;;-6.75;54.91
56074;BME280;41950;55.840;37.442;2024-03-07T05:31:38;100358.66;;;-7.13;54.56
56074;BME280;41950;55.840;37.442;2024-03-07T05:34:11;100433.47;;;-6.61;54.41
56074;BME280;41950;55.840;37.442;2024-03-07T05:36:38;100419.97;;;-6.61;54.42
56074;BME280;41950;55.840;37.442;2024-03-07T05:39:14;100404.72;;;-6.63;53.87
56074;BME280;41950;55.840;37.442;2024-03-07T05:41:42;100404.63;;;-6.64;53.96
56074;BME280;41950;55.840;37.442;2024-03-07T05:44:08;100416.19;;;-6.55;53.74
56074;BME280;41950;55.840;37.442;2024-03-07T05:46:38;100319.00;;;-7.02;53.40
56074;BME280;41950;55.840;37.442;2024-03-07T05:49:08;100419.06;;;-6.22;53.26
56074;BME280;41950;55.840;37.442;2024-03-07T05:51:34;100334.81;;;-6.50;52.70
56074;BME280;41950;55.840;37.442;2024-03-07T05:54:00;100394.69;;;-6.07;52.11
56074;BME280;41950;55.840;37.442;2024-03-07T05:56:26;100406.88;;;-6.14;52.03
56074;BME280;41950;55.840;37.442;2024-03-07T05:58:52;100416.28;;;-6.12;52.37
56074;BME280;41950;55.840;37.442;2024-03-07T06:01:18;100417.34;;;-6.08;52.18
56074;BME280;41950;55.840;37.442;2024-03-07T06:03:44;100420.63;;;-5.96;52.17
56074;BME280;41950;55.840;37.442;2024-03-07T06:06:11;100414.09;;;-5.93;51.42
56074;BME280;41950;55.840;37.442;2024-03-07T06:08:38;100132.88;;;-7.62;51.24
56074;BME280;41950;55.840;37.442;2024-03-07T06:11:08;100356.00;;;-6.34;51.63
56074;BME280;41950;55.840;37.442;2024-03-07T06:13:34;100378.13;;;-6.16;51.49
56074;BME280;41950;55.840;37.442;2024-03-07T06:15:59;100397.28;;;-5.92;51.44
56074;BME280;41950;55.840;37.442;2024-03-07T06:18:29;100397.00;;;-5.82;51.07
56074;BME280;41950;55.840;37.442;2024-03-07T06:20:57;100373.00;;;-5.88;50.94
56074;BME280;41950;55.840;37.442;2024-03-07T06:23:22;100362.75;;;-5.92;51.01
56074;BME280;41950;55.840;37.442;2024-03-07T06:25:49;100391.28;;;-5.65;50.96
56074;BME280;41950;55.840;37.442;2024-03-07T06:28:19;100367.00;;;-5.76;50.39
56074;BME280;41950;55.840;37.442;2024-03-07T06:30:47;100357.59;;;-5.78;50.91
56074;BME280;41950;55.840;37.442;2024-03-07T06:33:13;100330.13;;;-5.87;50.09
56074;BME280;41950;55.840;37.442;2024-03-07T06:35:40;100373.66;;;-5.48;50.33
56074;BME280;41950;55.840;37.442;2024-03-07T06:38:10;100369.06;;;-5.41;50.27
56074;BME280;41950;55.840;37.442;2024-03-07T06:40:36;100365.31;;;-5.47;49.44
56074;BME280;41950;55.840;37.442;2024-03-07T06:43:03;100374.88;;;-5.27;50.21
56074;BME280;41950;55.840;37.442;2024-03-07T06:45:38;100347.59;;;-5.33;49.62
56074;BME280;41950;55.840;37.442;2024-03-07T06:48:05;100364.34;;;-5.20;49.86
56074;BME280;41950;55.840;37.442;2024-03-07T06:50:33;100351.88;;;-5.17;49.74
56074;BME280;41950;55.840;37.442;2024-03-07T06:53:03;100330.38;;;-5.23;49.68
56074;BME280;41950;55.840;37.442;2024-03-07T06:55:33;100377.22;;;-4.86;49.66
56074;BME280;41950;55.840;37.442;2024-03-07T06:58:03;100373.84;;;-4.70;49.55
56074;BME280;41950;55.840;37.442;2024-03-07T07:00:30;100372.53;;;-4.63;49.11
56074;BME280;41950;55.840;37.442;2024-03-07T07:03:13;100353.94;;;-4.64;48.35
56074;BME280;41950;55.840;37.442;2024-03-07T07:05:48;100370.47;;;-4.54;48.56
56074;BME280;41950;55.840;37.442;2024-03-07T07:08:33;100294.53;;;-4.85;48.67
56074;BME280;41950;55.840;37.442;2024-03-07T07:10:59;100337.88;;;-4.48;48.29
56074;BME280;41950;55.840;37.442;2024-03-07T07:13:25;100360.69;;;-4.32;47.98
56074;BME280;41950;55.840;37.442;2024-03-07T07:15:51;100369.81;;;-4.19;48.32
56074;BME280;41950;55.840;37.442;2024-03-07T07:18:16;100361.81;;;-4.11;48.50
56074;BME280;41950;55.840;37.442;2024-03-07T07:20:42;100329.63;;;-4.12;48.14
56074;BME280;41950;55.840;37.442;2024-03-07T07:23:08;100340.88;;;-3.90;48.51
56074;BME280;41950;55.840;37.442;2024-03-07T07:25:34;100358.63;;;-3.74;47.83
56074;BME280;41950;55.840;37.442;2024-03-07T07:28:00;100361.88;;;-3.77;47.51
56074;BME280;41950;55.840;37.442;2024-03-07T07:30:26;100354.34;;;-3.75;47.54
56074;BME280;41950;55.840;37.442;2024-03-07T07:32:54;100352.34;;;-3.64;47.66
56074;BME280;41950;55.840;37.442;2024-03-07T07:35:20;100350.72;;;-3.46;47.79
56074;BME280;41950;55.840;37.442;2024-03-07T07:37:51;100338.53;;;-3.35;47.65
56074;BME280;41950;55.840;37.442;2024-03-07T07:40:20;100322.06;;;-3.44;47.23
56074;BME280;41950;55.840;37.442;2024-03-07T07:42:50;100341.16;;;-3.34;47.11
56074;BME280;41950;55.840;37.442;2024-03-07T07:45:18;100340.03;;;-3.23;47.24
56074;BME280;41950;55.840;37.442;2024-03-07T07:47:47;100323.25;;;-3.19;46.86
56074;BME280;41950;55.840;37.442;2024-03-07T07:50:15;100350.47;;;-2.99;46.25
56074;BME280;41950;55.840;37.442;2024-03-07T07:52:45;100338.06;;;-2.93;46.32
56074;BME280;41950;55.840;37.442;2024-03-07T07:55:15;100338.53;;;-2.82;46.45
56074;BME280;41950;55.840;37.442;2024-03-07T07:57:42;100334.63;;;-2.75;46.12
56074;BME280;41950;55.840;37.442;2024-03-07T08:00:17;100336.66;;;-2.68;46.14
56074;BME280;41950;55.840;37.442;2024-03-07T08:02:53;100330.25;;;-2.60;46.23
56074;BME280;41950;55.840;37.442;2024-03-07T08:05:32;100301.38;;;-2.62;46.06
56074;BME280;41950;55.840;37.442;2024-03-07T08:08:02;100295.06;;;-2.51;46.00
56074;BME280;41950;55.840;37.442;2024-03-07T08:10:30;100218.34;;;-2.81;45.86
56074;BME280;41950;55.840;37.442;2024-03-07T08:12:57;100322.13;;;-2.14;45.54
56074;BME280;41950;55.840;37.442;2024-03-07T08:15:25;100303.59;;;-2.12;45.41
56074;BME280;41950;55.840;37.442;2024-03-07T08:17:52;100301.13;;;-2.10;45.74
56074;BME280;41950;55.840;37.442;2024-03-07T08:20:19;100283.06;;;-2.16;45.64
56074;BME280;41950;55.840;37.442;2024-03-07T08:22:46;100304.59;;;-1.89;45.28
56074;BME280;41950;55.840;37.442;2024-03-07T08:25:14;100274.00;;;-1.91;45.08
56074;BME280;41950;55.840;37.442;2024-03-07T08:27:41;100273.50;;;-1.82;45.32
56074;BME280;41950;55.840;37.442;2024-03-07T08:30:09;100299.16;;;-1.57;45.12
56074;BME280;41950;55.840;37.442;2024-03-07T08:32:43;100292.56;;;-1.51;45.17
56074;BME280;41950;55.840;37.442;2024-03-07T08:35:09;100290.31;;;-1.44;44.91
56074;BME280;41950;55.840;37.442;2024-03-07T08:37:41;100292.25;;;-1.38;44.62
56074;BME280;41950;55.840;37.442;2024-03-07T08:40:08;100263.06;;;-1.46;44.64
56074;BME280;41950;55.840;37.442;2024-03-07T08:42:36;100269.94;;;-1.23;44.64
56074;BME280;41950;55.840;37.442;2024-03-07T08:45:03;100291.22;;;-1.00;44.32
56074;BME280;41950;55.840;37.442;2024-03-07T08:47:36;100235.50;;;-1.13;44.36
56074;BME280;41950;55.840;37.442;2024-03-07T08:50:04;100264.63;;;-0.84;44.20
56074;BME280;41950;55.840;37.442;2024-03-07T08:52:35;100269.59;;;-0.65;43.78
56074;BME280;41950;55.840;37.442;2024-03-07T08:55:06;100234.47;;;-0.74;44.03
56074;BME280;41950;55.840;37.442;2024-03-07T08:57:36;100267.41;;;-0.32;43.75
56074;BME280;41950;55.840;37.442;2024-03-07T09:00:03;100266.88;;;-0.23;43.05
56074;BME280;41950;55.840;37.442;2024-03-07T09:02:35;100204.66;;;-0.52;42.96
56074;BME280;41950;55.840;37.442;2024-03-07T09:05:01;100241.56;;;-0.17;42.83
56074;BME280;41950;55.840;37.442;2024-03-07T09:07:30;100188.75;;;-0.45;42.38
56074;BME280;41950;55.840;37.442;2024-03-07T09:09:56;100267.59;;;-0.02;42.86
56074;BME280;41950;55.840;37.442;2024-03-07T09:12:22;100250.75;;;0.02;42.70
56074;BME280;41950;55.840;37.442;2024-03-07T09:14:48;100253.34;;;0.03;42.38
56074;BME280;41950;55.840;37.442;2024-03-07T09:17:14;100253.59;;;0.11;42.44
56074;BME280;41950;55.840;37.442;2024-03-07T09:19:41;100259.09;;;0.23;42.17
56074;BME280;41950;55.840;37.442;2024-03-07T09:22:07;100235.88;;;0.15;42.10
56074;BME280;41950;55.840;37.442;2024-03-07T09:24:33;100209.34;;;0.10;42.30
56074;BME280;41950;55.840;37.442;2024-03-07T09:27:00;100249.78;;;0.50;42.17
56074;BME280;41950;55.840;37.442;2024-03-07T09:29:26;100224.16;;;0.47;42.14
56074;BME280;41950;55.840;37.442;2024-03-07T09:31:53;100240.84;;;0.63;42.15
56074;BME280;41950;55.840;37.442;2024-03-07T09:34:21;100241.97;;;0.73;41.98
56074;BME280;41950;55.840;37.442;2024-03-07T09:36:50;100234.22;;;0.70;41.49
56074;BME280;41950;55.840;37.442;2024-03-07T09:39:16;100229.03;;;0.67;41.07
56074;BME280;41950;55.840;37.442;2024-03-07T09:41:42;100244.81;;;0.82;41.59
56074;BME280;41950;55.840;37.442;2024-03-07T09:44:18;100218.38;;;0.81;41.59
56074;BME280;41950;55.840;37.442;2024-03-07T09:46:50;100237.63;;;0.97;41.44
56074;BME280;41950;55.840;37.442;2024-03-07T09:49:17;100241.44;;;1.10;41.73
56074;BME280;41950;55.840;37.442;2024-03-07T09:51:44;100239.03;;;1.16;41.26
56074;BME280;41950;55.840;37.442;2024-03-07T09:54:10;100226.16;;;1.13;41.32
56074;BME280;41950;55.840;37.442;2024-03-07T09:56:38;100221.97;;;1.15;41.23
56074;BME280;41950;55.840;37.442;2024-03-07T09:59:05;100220.50;;;1.23;40.82
56074;BME280;41950;55.840;37.442;2024-03-07T10:01:37;100189.09;;;0.99;41.13
56074;BME280;41950;55.840;37.442;2024-03-07T10:04:08;100205.06;;;1.20;41.23
56074;BME280;41950;55.840;37.442;2024-03-07T10:06:38;100205.69;;;1.41;41.43
56074;BME280;41950;55.840;37.442;2024-03-07T10:09:06;100228.72;;;1.73;40.48
56074;BME280;41950;55.840;37.442;2024-03-07T10:11:33;100197.06;;;1.69;40.16
56074;BME280;41950;55.840;37.442;2024-03-07T10:13:59;100195.63;;;1.80;40.02
56074;BME280;41950;55.840;37.442;2024-03-07T10:16:25;100204.28;;;1.85;39.93
56074;BME280;41950;55.840;37.442;2024-03-07T10:18:50;100183.66;;;1.79;39.95
56074;BME280;41950;55.840;37.442;2024-03-07T10:21:20;100222.72;;;2.05;39.98
56074;BME280;41950;55.840;37.442;2024-03-07T10:23:46;100214.69;;;2.25;39.85
56074;BME280;41950;55.840;37.442;2024-03-07T10:26:12;100188.56;;;2.39;39.30
56074;BME280;41950;55.840;37.442;2024-03-07T10:28:38;100186.53;;;2.62;38.90
56074;BME280;41950;55.840;37.442;2024-03-07T10:31:05;100145.72;;;2.32;38.63
56074;BME280;41950;55.840;37.442;2024-03-07T10:33:39;100192.53;;;2.63;38.87
56074;BME280;41950;55.840;37.442;2024-03-07T10:36:05;100178.22;;;2.72;38.26
56074;BME280;41950;55.840;37.442;2024-03-07T10:38:33;100071.97;;;2.19;38.28
56074;BME280;41950;55.840;37.442;2024-03-07T10:40:59;100178.91;;;3.03;38.49
56074;BME280;41950;55.840;37.442;2024-03-07T10:43:28;100172.72;;;2.95;37.40
56074;BME280;41950;55.840;37.442;2024-03-07T10:45:56;100139.97;;;2.80;37.13
56074;BME280;41950;55.840;37.442;2024-03-07T10:48:25;100183.53;;;3.21;36.53
56074;BME280;41950;55.840;37.442;2024-03-07T10:51:09;100176.50;;;3.10;37.18
56074;BME280;41950;55.840;37.442;2024-03-07T10:56:47;100173.91;;;3.54;37.00
56074;BME280;41950;55.840;37.442;2024-03-07T10:59:24;100160.38;;;3.61;36.26
56074;BME280;41950;55.840;37.442;2024-03-07T11:02:13;100122.28;;;3.84;36.48
56074;BME280;41950;55.840;37.442;2024-03-07T11:04:41;100166.31;;;4.63;36.00
56074;BME280;41950;55.840;37.442;2024-03-07T11:07:08;100161.41;;;4.80;35.48
56074;BME280;41950;55.840;37.442;2024-03-07T11:09:37;100145.44;;;5.02;33.91
56074;BME280;41950;55.840;37.442;2024-03-07T11:12:03;100123.97;;;5.00;34.68
56074;BME280;41950;55.840;37.442;2024-03-07T11:14:30;100069.78;;;4.86;33.86
56074;BME280;41950;55.840;37.442;2024-03-07T11:16:58;100143.78;;;5.87;33.97
56074;BME280;41950;55.840;37.442;2024-03-07T11:19:28;100135.47;;;6.16;32.97
56074;BME280;41950;55.840;37.442;2024-03-07T11:21:56;100105.69;;;6.59;32.70
56074;BME280;41950;55.840;37.442;2024-03-07T11:24:25;100141.13;;;6.95;31.71
56074;BME280;41950;55.840;37.442;2024-03-07T11:26:52;100136.94;;;7.28;32.04
56074;BME280;41950;55.840;37.442;2024-03-07T11:32:15;100119.00;;;7.98;30.75
56074;BME280;41950;55.840;37.442;2024-03-07T11:34:42;100137.06;;;8.21;30.39
56074;BME280;41950;55.840;37.442;2024-03-07T11:37:09;100121.56;;;8.45;30.54
56074;BME280;41950;55.840;37.442;2024-03-07T11:39:43;100130.94;;;8.93;29.73
56074;BME280;41950;55.840;37.442;2024-03-07T11:42:30;100115.50;;;8.60;28.72
56074;BME280;41950;55.840;37.442;2024-03-07T11:45:00;100129.31;;;8.59;29.62
56074;BME280;41950;55.840;37.442;2024-03-07T11:47:36;100062.13;;;8.01;29.57
56074;BME280;41950;55.840;37.442;2024-03-07T11:50:07;100119.81;;;8.62;29.95
56074;BME280;41950;55.840;37.442;2024-03-07T11:52:37;100111.22;;;8.47;29.11
56074;BME280;41950;55.840;37.442;2024-03-07T11:55:08;100131.03;;;8.63;28.79
56074;BME280;41950;55.840;37.442;2024-03-07T11:57:33;100092.25;;;8.58;28.96
56074;BME280;41950;55.840;37.442;2024-03-07T12:00:00;100093.91;;;8.73;28.75
56074;BME280;41950;55.840;37.442;2024-03-07T12:02:27;100099.94;;;8.78;29.13
56074;BME280;41950;55.840;37.442;2024-03-07T12:04:54;100063.78;;;8.57;29.36
56074;BME280;41950;55.840;37.442;2024-03-07T12:07:20;100093.97;;;8.47;28.61
56074;BME280;41950;55.840;37.442;2024-03-07T12:09:49;100081.84;;;8.71;28.95
56074;BME280;41950;55.840;37.442;2024-03-07T12:12:22;100095.72;;;8.50;28.60
56074;BME280;41950;55.840;37.442;2024-03-07T12:14:48;100100.03;;;8.23;29.06
56074;BME280;41950;55.840;37.442;2024-03-07T12:17:16;100091.38;;;8.55;29.30
56074;BME280;41950;55.840;37.442;2024-03-07T12:19:43;100051.66;;;8.71;29.17
56074;BME280;41950;55.840;37.442;2024-03-07T12:22:10;100075.78;;;8.82;28.81
56074;BME280;41950;55.840;37.442;2024-03-07T12:24:41;100084.41;;;8.81;28.38
56074;BME280;41950;55.840;37.442;2024-03-07T12:27:11;100094.00;;;8.41;28.79
56074;BME280;41950;55.840;37.442;2024-03-07T12:29:40;100100.06;;;7.96;28.73
56074;BME280;41950;55.840;37.442;2024-03-07T12:32:12;100087.97;;;7.83;29.29
56074;BME280;41950;55.840;37.442;2024-03-07T12:34:39;100085.41;;;8.01;29.72
56074;BME280;41950;55.840;37.442;2024-03-07T12:37:11;100069.88;;;8.07;29.10
56074;BME280;41950;55.840;37.442;2024-03-07T12:39:44;100069.00;;;8.08;28.84
56074;BME280;41950;55.840;37.442;2024-03-07T12:42:15;100067.28;;;8.18;28.79
56074;BME280;41950;55.840;37.442;2024-03-07T12:44:46;100065.50;;;8.49;28.26
56074;BME280;41950;55.840;37.442;2024-03-07T12:47:12;100062.94;;;8.20;27.41
56074;BME280;41950;55.840;37.442;2024-03-07T12:49:48;100074.19;;;7.71;27.99
56074;BME280;41950;55.840;37.442;2024-03-07T12:52:14;99908.47;;;5.79;30.39